Time;durP1;ratioP1;P1;durP2;ratioP2;P2;SDS_P1;SDS_P2;PMS_P1;PMS_P2;Temp;Humidity;BMP_temperature;BMP_pressure;BME280_temperature;BME280_humidity;BME280_pressure;Samples;Min_cycle;Max_cycle;Signal;HPM_P1;HPM_P2
2022/09/13 00:00:59;;;;;;;5.13;3.15;;;;;;;;;;5056994;28;20472;-81
2022/09/13 00:03:25;;;;;;;3.25;2.95;;;;;;;;;;5058198;28;20060;-81
2022/09/13 00:05:51;;;;;;;6.05;3.53;;;;;;;;;;5076151;28;20040;-81
2022/09/13 00:08:16;;;;;;;4.38;3.20;;;;;;;;;;5074768;28;20477;-81
2022/09/13 00:10:43;;;;;;;4.05;2.90;;;;;;;;;;5025056;28;20032;-81
2022/09/13 00:13:10;;;;;;;3.72;2.72;;;;;;;;;;5058443;28;20502;-81
2022/09/13 00:15:36;;;;;;;5.07;3.25;;;;;;;;;;5058371;28;20032;-82
2022/09/13 00:18:01;;;;;;;4.60;2.97;;;;;;;;;;5076619;28;20050;-81
2022/09/13 00:20:27;;;;;;;3.13;2.85;;;;;;;;;;5041439;28;20119;-81
2022/09/13 00:22:52;;;;;;;2.92;2.67;;;;;;;;;;5075831;28;20032;-81
2022/09/13 00:25:18;;;;;;;3.78;3.10;;;;;;;;;;5058280;28;20024;-81
2022/09/13 00:27:44;;;;;;;4.55;2.83;;;;;;;;;;5057521;28;20489;-79
2022/09/13 00:30:11;;;;;;;3.78;3.00;;;;;;;;;;5058004;28;20028;-79
2022/09/13 00:32:36;;;;;;;5.65;3.00;;;;;;;;;;5058159;28;20372;-79
2022/09/13 00:35:04;;;;;;;3.53;2.75;;;;;;;;;;5057810;28;20028;-79
2022/09/13 00:37:29;;;;;;;3.20;2.80;;;;;;;;;;5058100;28;20116;-81
2022/09/13 00:39:55;;;;;;;3.78;2.78;;;;;;;;;;5058028;28;20063;-80
2022/09/13 00:42:28;;;;;;;3.22;2.80;;;;;;;;;;5040997;28;20048;-80
2022/09/13 00:44:57;;;;;;;3.83;2.80;;;;;;;;;;5075412;28;20459;-81
2022/09/13 00:47:45;;;;;;;3.35;2.95;;;;;;;;;;5057450;28;20096;-82
2022/09/13 00:50:43;;;;;;;3.85;2.83;;;;;;;;;;5057528;28;20024;-80
2022/09/13 00:53:13;;;;;;;3.40;2.83;;;;;;;;;;5072220;28;20033;-80
2022/09/13 00:56:00;;;;;;;3.45;3.00;;;;;;;;;;5075629;28;20024;-80
2022/09/13 00:58:31;;;;;;;3.30;2.72;;;;;;;;;;5075423;28;20021;-80
2022/09/13 01:00:58;;;;;;;5.75;2.83;;;;;;;;;;5075362;28;20110;-80
2022/09/13 01:03:26;;;;;;;2.83;2.50;;;;;;;;;;5057718;28;20031;-80
2022/09/13 01:05:59;;;;;;;5.82;3.10;;;;;;;;;;5057407;28;20032;-80
2022/09/13 01:08:30;;;;;;;7.38;3.00;;;;;;;;;;5040464;28;20024;-80
2022/09/13 01:10:57;;;;;;;4.05;3.10;;;;;;;;;;5057790;28;20409;-80
2022/09/13 01:13:25;;;;;;;3.17;2.88;;;;;;;;;;5057625;28;20029;-80
2022/09/13 01:15:51;;;;;;;3.17;2.80;;;;;;;;;;5057362;28;20105;-80
2022/09/13 01:18:17;;;;;;;3.63;2.90;;;;;;;;;;5057133;28;20121;-79
2022/09/13 01:21:15;;;;;;;4.15;2.38;;;;;;;;;;5057539;28;20025;-80
2022/09/13 01:23:43;;;;;;;3.55;2.80;;;;;;;;;;5074760;28;20480;-79
2022/09/13 01:26:46;;;;;;;3.88;3.20;;;;;;;;;;5056975;28;20418;-80
2022/09/13 01:29:30;;;;;;;2.80;2.60;;;;;;;;;;5074948;28;20036;-80
2022/09/13 01:32:17;;;;;;;;;;;;;;;;;;5075556;28;20024;-80
2022/09/13 01:35:06;;;;;;;4.40;2.80;;;;;;;;;;5039832;28;19914;-79
2022/09/13 01:37:40;;;;;;;4.43;3.30;;;;;;;;;;5056828;28;20048;-80
2022/09/13 01:40:40;;;;;;;3.67;2.80;;;;;;;;;;5056499;28;20067;-81
2022/09/13 01:43:24;;;;;;;2.97;2.67;;;;;;;;;;5074633;28;20097;-80
2022/09/13 01:46:07;;;;;;;4.32;2.83;;;;;;;;;;5056694;28;20028;-80
2022/09/13 01:48:42;;;;;;;4.07;3.00;;;;;;;;;;5056416;28;20024;-80
2022/09/13 01:51:37;;;;;;;3.22;2.70;;;;;;;;;;5056459;28;20125;-80
2022/09/13 01:54:08;;;;;;;3.13;2.90;;;;;;;;;;5050295;28;20047;-83
2022/09/13 01:57:03;;;;;;;3.83;2.80;;;;;;;;;;5056115;28;20025;-80
2022/09/13 01:59:45;;;;;;;3.75;2.83;;;;;;;;;;5038163;28;20036;-80
2022/09/13 02:02:17;;;;;;;3.33;2.50;;;;;;;;;;5039424;28;20036;-80
2022/09/13 02:04:47;;;;;;;5.05;2.80;;;;;;;;;;5056035;28;20031;-80
2022/09/13 02:07:18;;;;;;;12.57;2.90;;;;;;;;;;5039247;28;20020;-82
2022/09/13 02:09:47;;;;;;;4.50;2.70;;;;;;;;;;5056075;28;20051;-82
2022/09/13 02:12:19;;;;;;;5.57;2.65;;;;;;;;;;5055831;28;20097;-82
2022/09/13 02:14:52;;;;;;;4.00;2.70;;;;;;;;;;5055939;28;20075;-82
2022/09/13 02:17:22;;;;;;;4.85;2.85;;;;;;;;;;5074117;28;20024;-80
2022/09/13 02:20:04;;;;;;;2.95;2.72;;;;;;;;;;5055817;28;20028;-81
2022/09/13 02:22:32;;;;;;;3.35;3.05;;;;;;;;;;5038526;28;20491;-82
2022/09/13 02:25:06;;;;;;;5.40;2.70;;;;;;;;;;5055971;28;20024;-81
2022/09/13 02:27:32;;;;;;;;;;;;;;;;;;5055771;28;20052;-81
2022/09/13 02:30:01;;;;;;;3.17;2.85;;;;;;;;;;5039014;28;19908;-81
2022/09/13 02:32:32;;;;;;;3.72;2.45;;;;;;;;;;5038876;28;20028;-80
2022/09/13 02:35:04;;;;;;;6.57;2.90;;;;;;;;;;5055419;28;20103;-81
2022/09/13 02:37:31;;;;;;;3.80;3.03;;;;;;;;;;5055497;28;20020;-81
2022/09/13 02:40:04;;;;;;;3.15;2.85;;;;;;;;;;5055473;28;20024;-81
2022/09/13 02:42:37;;;;;;;5.07;3.20;;;;;;;;;;5055466;28;20028;-81
2022/09/13 02:45:05;;;;;;;3.50;3.05;;;;;;;;;;5055457;28;20029;-81
2022/09/13 02:47:44;;;;;;;3.65;3.20;;;;;;;;;;5073416;28;20034;-81
2022/09/13 02:50:21;;;;;;;4.55;3.33;;;;;;;;;;5055612;28;20469;-81
2022/09/13 02:52:59;;;;;;;3.72;2.80;;;;;;;;;;5055180;28;20532;-81
2022/09/13 02:55:35;;;;;;;3.08;2.63;;;;;;;;;;5073080;28;20028;-81
2022/09/13 02:58:15;;;;;;;5.57;3.15;;;;;;;;;;5073036;28;20496;-81
2022/09/13 03:00:41;;;;;;;5.60;2.97;;;;;;;;;;5038503;28;20055;-81
2022/09/13 03:03:09;;;;;;;4.60;3.03;;;;;;;;;;5055757;28;20029;-81
2022/09/13 03:05:34;;;;;;;3.15;2.85;;;;;;;;;;5055063;28;20460;-81
2022/09/13 03:08:00;;;;;;;3.25;2.95;;;;;;;;;;5073182;28;20040;-81
2022/09/13 03:10:30;;;;;;;4.22;3.03;;;;;;;;;;5072980;28;20453;-81
2022/09/13 03:13:09;;;;;;;4.18;3.05;;;;;;;;;;5055318;28;20074;-80
2022/09/13 03:15:49;;;;;;;9.60;3.00;;;;;;;;;;5038193;28;20063;-80
2022/09/13 03:18:47;;;;;;;3.30;3.00;;;;;;;;;;5038310;28;20029;-80
2022/09/13 03:21:16;;;;;;;4.35;3.05;;;;;;;;;;5054922;28;20033;-80
2022/09/13 03:24:15;;;;;;;3.15;2.80;;;;;;;;;;5072753;28;20032;-80
2022/09/13 03:26:45;;;;;;;2.97;2.42;;;;;;;;;;5072855;28;20051;-80
2022/09/13 03:29:24;;;;;;;4.00;2.97;;;;;;;;;;5054953;28;20040;-80
2022/09/13 03:32:05;;;;;;;4.60;3.45;;;;;;;;;;5055122;28;20032;-81
2022/09/13 03:34:39;;;;;;;3.67;2.70;;;;;;;;;;5072726;28;20025;-81
2022/09/13 03:37:13;;;;;;;4.20;2.88;;;;;;;;;;5058647;28;20017;-81
2022/09/13 03:39:41;;;;;;;5.43;3.03;;;;;;;;;;5041995;28;20392;-81
2022/09/13 03:42:28;;;;;;;3.22;2.70;;;;;;;;;;5076911;28;20027;-80
2022/09/13 03:44:55;;;;;;;3.38;2.90;;;;;;;;;;5064395;28;20473;-80
2022/09/13 03:47:22;;;;;;;4.55;3.00;;;;;;;;;;5058801;28;20178;-80
2022/09/13 03:49:51;;;;;;;2.95;2.60;;;;;;;;;;5076806;28;20115;-80
2022/09/13 03:52:17;;;;;;;3.05;2.75;;;;;;;;;;5059422;28;20029;-80
2022/09/13 03:54:42;;;;;;;5.13;3.20;;;;;;;;;;5041870;28;20032;-80
2022/09/13 03:57:13;;;;;;;4.82;3.40;;;;;;;;;;5058774;28;20070;-81
2022/09/13 03:59:47;;;;;;;11.95;3.22;;;;;;;;;;5058787;28;20028;-80
2022/09/13 04:02:14;;;;;;;7.10;3.15;;;;;;;;;;5058452;28;20389;-80
2022/09/13 04:04:40;;;;;;;3.50;3.15;;;;;;;;;;5076321;28;20029;-80
2022/09/13 04:07:07;;;;;;;5.15;3.00;;;;;;;;;;5076371;28;20082;-80
2022/09/13 04:09:32;;;;;;;5.10;3.15;;;;;;;;;;5076269;28;20450;-80
2022/09/13 04:11:58;;;;;;;4.13;3.03;;;;;;;;;;5076560;28;20036;-80
2022/09/13 04:14:25;;;;;;;4.53;3.20;;;;;;;;;;5058093;28;20032;-79
2022/09/13 04:16:52;;;;;;;10.63;3.53;;;;;;;;;;5058496;28;20036;-80
2022/09/13 04:19:17;;;;;;;5.80;3.63;;;;;;;;;;5057922;28;20591;-79
2022/09/13 04:21:43;;;;;;;25.30;7.18;;;;;;;;;;5075448;28;20062;-81
2022/09/13 04:24:08;;;;;;;13.02;6.13;;;;;;;;;;5057405;28;20020;-80
2022/09/13 04:26:34;;;;;;;15.60;5.15;;;;;;;;;;5074630;28;20396;-81
2022/09/13 04:28:59;;;;;;;13.95;6.10;;;;;;;;;;5073797;28;20049;-80
2022/09/13 04:31:25;;;;;;;14.15;4.97;;;;;;;;;;5073957;28;20039;-81
2022/09/13 04:33:50;;;;;;;11.27;4.65;;;;;;;;;;5073198;28;20447;-81
2022/09/13 04:36:15;;;;;;;11.13;4.15;;;;;;;;;;5073136;28;20071;-80
2022/09/13 04:38:41;;;;;;;12.35;3.60;;;;;;;;;;5073218;28;20032;-81
2022/09/13 04:41:08;;;;;;;8.63;3.65;;;;;;;;;;5073536;28;20489;-81
2022/09/13 04:43:33;;;;;;;10.23;3.60;;;;;;;;;;5055488;28;20040;-81
2022/09/13 04:46:00;;;;;;;6.60;3.75;;;;;;;;;;5072621;28;20105;-81
2022/09/13 04:48:25;;;;;;;5.28;3.83;;;;;;;;;;5062949;28;20056;-81
2022/09/13 04:50:50;;;;;;;10.38;3.75;;;;;;;;;;5055722;28;20377;-79
2022/09/13 04:53:17;;;;;;;6.88;3.47;;;;;;;;;;5041570;28;20397;-79
2022/09/13 04:55:42;;;;;;;14.88;5.32;;;;;;;;;;5056190;28;20029;-78
2022/09/13 04:58:07;;;;;;;14.68;6.00;;;;;;;;;;5064189;28;20074;-79
2022/09/13 05:00:33;;;;;;;14.98;5.93;;;;;;;;;;5078203;28;20025;-78
2022/09/13 05:02:58;;;;;;;21.63;6.30;;;;;;;;;;5075926;28;20039;-78
2022/09/13 05:05:28;;;;;;;17.38;6.50;;;;;;;;;;5075878;28;20029;-78
2022/09/13 05:07:53;;;;;;;15.43;6.72;;;;;;;;;;5073820;28;20024;-78
2022/09/13 05:10:19;;;;;;;14.05;6.22;;;;;;;;;;5056358;28;20033;-78
2022/09/13 05:12:44;;;;;;;13.10;6.20;;;;;;;;;;5074794;28;20078;-78
2022/09/13 05:15:11;;;;;;;12.77;6.05;;;;;;;;;;5057605;28;20032;-78
2022/09/13 05:17:37;;;;;;;18.10;6.32;;;;;;;;;;5076064;28;20024;-79
2022/09/13 05:20:04;;;;;;;15.55;6.05;;;;;;;;;;5056761;28;20366;-78
2022/09/13 05:22:29;;;;;;;12.75;5.63;;;;;;;;;;5057219;28;20484;-80
2022/09/13 05:24:55;;;;;;;12.50;5.43;;;;;;;;;;5056862;28;20035;-79
2022/09/13 05:27:21;;;;;;;13.18;5.90;;;;;;;;;;5038709;28;1116189;-79
2022/09/13 05:29:46;;;;;;;12.23;5.22;;;;;;;;;;5076431;28;20068;-79
2022/09/13 05:32:12;;;;;;;11.35;5.43;;;;;;;;;;5061967;28;20036;-79
2022/09/13 05:34:37;;;;;;;10.27;5.00;;;;;;;;;;5061509;28;20028;-78
2022/09/13 05:37:03;;;;;;;11.73;5.05;;;;;;;;;;5057961;28;20020;-78
2022/09/13 05:39:28;;;;;;;10.68;5.35;;;;;;;;;;5074546;28;20033;-78
2022/09/13 05:41:57;;;;;;;10.38;4.90;;;;;;;;;;5056952;28;20115;-79
2022/09/13 05:44:22;;;;;;;8.63;5.05;;;;;;;;;;5056655;28;20476;-79
2022/09/13 05:46:47;;;;;;;6.72;4.43;;;;;;;;;;5075058;28;20078;-78
2022/09/13 05:49:13;;;;;;;11.20;4.88;;;;;;;;;;5056741;28;20453;-78
2022/09/13 05:51:38;;;;;;;8.30;4.47;;;;;;;;;;5060307;28;20180;-78
2022/09/13 05:54:04;;;;;;;13.25;5.07;;;;;;;;;;5058287;28;20063;-78
2022/09/13 05:56:31;;;;;;;9.30;4.95;;;;;;;;;;5055958;28;20396;-78
2022/09/13 05:58:57;;;;;;;8.45;4.53;;;;;;;;;;5073302;28;20024;-78
2022/09/13 06:01:27;;;;;;;10.45;5.13;;;;;;;;;;5056143;28;20035;-78
2022/09/13 06:03:54;;;;;;;9.13;5.00;;;;;;;;;;5056143;28;20025;-79
2022/09/13 06:06:20;;;;;;;10.23;5.03;;;;;;;;;;5056959;28;20094;-77
2022/09/13 06:08:46;;;;;;;8.88;4.95;;;;;;;;;;5040736;28;20039;-78
2022/09/13 06:11:13;;;;;;;8.15;5.00;;;;;;;;;;5055967;28;20099;-78
2022/09/13 06:13:39;;;;;;;10.32;4.97;;;;;;;;;;5038901;28;20028;-77
2022/09/13 06:16:07;;;;;;;7.85;4.47;;;;;;;;;;5056159;28;20025;-77
2022/09/13 06:18:36;;;;;;;6.72;4.57;;;;;;;;;;5055889;28;20068;-77
2022/09/13 06:21:09;;;;;;;10.40;4.50;;;;;;;;;;5055595;28;20059;-78
2022/09/13 06:23:35;;;;;;;;;;;;;;;;;;5039354;28;20431;-78
2022/09/13 06:26:04;;;;;;;7.72;4.80;;;;;;;;;;5038686;28;19912;-78
2022/09/13 06:28:30;;;;;;;6.45;4.47;;;;;;;;;;5038438;28;20051;-78
2022/09/13 06:31:09;;;;;;;6.97;4.15;;;;;;;;;;5073749;28;20028;-77
2022/09/13 06:33:36;;;;;;;7.25;4.75;;;;;;;;;;5073265;28;20452;-78
2022/09/13 06:36:03;;;;;;;6.93;4.95;;;;;;;;;;5056339;28;20032;-78
2022/09/13 06:38:29;;;;;;;10.43;5.82;;;;;;;;;;5056241;28;20025;-77
2022/09/13 06:41:06;;;;;;;12.88;5.50;;;;;;;;;;5036864;28;20028;-77
2022/09/13 06:43:32;;;;;;;8.63;5.20;;;;;;;;;;5054627;28;20081;-78
2022/09/13 06:45:59;;;;;;;13.27;5.38;;;;;;;;;;5054914;28;20452;-78
2022/09/13 06:48:25;;;;;;;7.03;4.97;;;;;;;;;;5054576;28;20040;-78
2022/09/13 06:50:50;;;;;;;10.57;5.50;;;;;;;;;;5073067;28;20058;-79
2022/09/13 06:53:15;;;;;;;11.45;5.40;;;;;;;;;;5037271;28;20392;-78
2022/09/13 06:55:41;;;;;;;7.07;4.82;;;;;;;;;;5072692;22;20532;-77
2022/09/13 06:58:06;;;;;;;8.45;5.30;;;;;;;;;;5033340;28;20103;-77
2022/09/13 07:00:31;;;;;;;9.10;4.70;;;;;;;;;;5033657;28;20036;-77
2022/09/13 07:02:57;;;;;;;8.80;5.45;;;;;;;;;;5033098;28;20556;-77
2022/09/13 07:05:22;;;;;;;10.70;6.10;;;;;;;;;;5032634;28;20029;-78
2022/09/13 07:07:48;;;;;;;16.40;6.30;;;;;;;;;;5031042;28;20033;-78
2022/09/13 07:10:13;;;;;;;13.55;5.88;;;;;;;;;;5032268;28;20030;-77
2022/09/13 07:12:41;;;;;;;9.07;5.47;;;;;;;;;;5032821;28;20033;-78
2022/09/13 07:15:07;;;;;;;8.07;5.38;;;;;;;;;;5034450;28;20041;-78
2022/09/13 07:17:33;;;;;;;8.07;5.05;;;;;;;;;;5032309;28;20437;-77
2022/09/13 07:19:58;;;;;;;7.82;5.30;;;;;;;;;;5032695;28;20042;-77
2022/09/13 07:22:26;;;;;;;7.88;5.10;;;;;;;;;;5032325;28;20083;-77
2022/09/13 07:24:52;;;;;;;5.90;4.30;;;;;;;;;;5047239;28;20041;-77
2022/09/13 07:27:17;;;;;;;7.22;4.88;;;;;;;;;;5032378;28;20055;-79
2022/09/13 07:29:43;;;;;;;7.55;5.47;;;;;;;;;;5032855;28;20102;-78
2022/09/13 07:32:08;;;;;;;10.48;5.15;;;;;;;;;;5047260;28;20038;-77
2022/09/13 07:34:34;;;;;;;6.40;4.95;;;;;;;;;;5032164;28;20026;-77
2022/09/13 07:37:00;;;;;;;9.07;5.20;;;;;;;;;;5050911;28;20029;-77
2022/09/13 07:39:25;;;;;;;11.35;5.00;;;;;;;;;;5052196;28;20120;-78
2022/09/13 07:41:52;;;;;;;8.35;5.22;;;;;;;;;;5052302;28;20496;-78
2022/09/13 07:44:17;;;;;;;9.55;5.57;;;;;;;;;;5050870;28;20024;-78
2022/09/13 07:46:43;;;;;;;6.95;5.22;;;;;;;;;;5050685;28;20036;-77
2022/09/13 07:49:13;;;;;;;7.88;4.95;;;;;;;;;;5034182;28;20068;-78
2022/09/13 07:51:40;;;;;;;11.20;4.60;;;;;;;;;;5051627;28;20469;-78
2022/09/13 07:54:10;;;;;;;12.77;5.35;;;;;;;;;;5034011;28;20111;-77
2022/09/13 07:56:37;;;;;;;7.97;5.38;;;;;;;;;;5033612;28;20098;-80
2022/09/13 07:59:04;;;;;;;6.70;4.93;;;;;;;;;;5033979;28;20029;-78
2022/09/13 08:01:40;;;;;;;5.25;4.07;;;;;;;;;;5034238;28;20032;-78
2022/09/13 08:04:11;;;;;;;7.65;4.10;;;;;;;;;;5051858;28;20021;-77
2022/09/13 08:06:38;;;;;;;7.63;4.38;;;;;;;;;;5034513;28;20456;-80
2022/09/13 08:09:05;;;;;;;6.18;4.72;;;;;;;;;;5033605;28;20032;-78
2022/09/13 08:11:39;;;;;;;5.80;4.22;;;;;;;;;;5017802;28;20048;-78
2022/09/13 08:14:06;;;;;;;6.30;3.65;;;;;;;;;;5051900;28;20021;-77
2022/09/13 08:16:31;;;;;;;5.53;3.78;;;;;;;;;;5051759;28;20427;-77
2022/09/13 08:18:59;;;;;;;4.35;3.30;;;;;;;;;;5013981;28;20102;-77
2022/09/13 08:21:26;;;;;;;5.80;3.33;;;;;;;;;;5053547;28;20448;-76
2022/09/13 08:23:55;;;;;;;5.55;3.30;;;;;;;;;;5038699;28;20044;-76
2022/09/13 08:26:21;;;;;;;4.63;2.90;;;;;;;;;;5021380;28;20037;-76
2022/09/13 08:28:46;;;;;;;3.88;2.92;;;;;;;;;;5037431;28;20183;-76
2022/09/13 08:31:15;;;;;;;9.20;2.65;;;;;;;;;;5056057;28;20462;-76
2022/09/13 08:33:43;;;;;;;5.15;2.95;;;;;;;;;;5038681;28;20033;-76
2022/09/13 08:36:08;;;;;;;5.57;3.05;;;;;;;;;;5038313;28;20056;-77
2022/09/13 08:38:33;;;;;;;5.35;2.92;;;;;;;;;;5037651;28;20052;-78
2022/09/13 08:41:01;;;;;;;6.97;2.80;;;;;;;;;;5055037;28;20041;-77
2022/09/13 08:43:39;;;;;;;5.75;3.20;;;;;;;;;;5020668;28;20027;-77
2022/09/13 08:46:12;;;;;;;5.97;2.95;;;;;;;;;;5054857;28;20025;-77
2022/09/13 08:48:41;;;;;;;4.70;2.45;;;;;;;;;;5036182;28;20452;-77
2022/09/13 08:51:16;;;;;;;4.72;2.70;;;;;;;;;;5069840;28;20075;-77
2022/09/13 08:53:46;;;;;;;2.97;1.85;;;;;;;;;;5053372;28;20432;-79
2022/09/13 08:56:19;;;;;;;7.63;2.70;;;;;;;;;;5070032;28;20127;-78
2022/09/13 08:58:59;;;;;;;5.00;2.05;;;;;;;;;;5070009;28;20025;-79
2022/09/13 09:01:43;;;;;;;3.50;2.25;;;;;;;;;;5054531;28;20029;-79
2022/09/13 09:04:23;;;;;;;9.20;2.13;;;;;;;;;;5054517;28;20031;-76
2022/09/13 09:06:49;;;;;;;3.05;1.58;;;;;;;;;;5054540;28;20057;-79
2022/09/13 09:09:17;;;;;;;3.55;1.90;;;;;;;;;;5037782;28;20535;-78
2022/09/13 09:12:13;;;;;;;7.00;2.40;;;;;;;;;;5053207;28;20032;-79
2022/09/13 09:14:43;;;;;;;3.20;1.73;;;;;;;;;;5073511;28;20037;-79
2022/09/13 09:17:37;;;;;;;2.47;1.52;;;;;;;;;;5070312;28;20021;-78
2022/09/13 09:20:25;;;;;;;5.43;1.42;;;;;;;;;;5051982;28;20083;-79
2022/09/13 09:22:52;;;;;;;9.23;1.80;;;;;;;;;;5054362;28;20489;-78
2022/09/13 09:25:19;;;;;;;6.72;1.90;;;;;;;;;;5069931;28;20032;-79
2022/09/13 09:27:45;;;;;;;9.88;2.00;;;;;;;;;;5071566;28;20131;-78
2022/09/13 09:30:14;;;;;;;7.03;1.73;;;;;;;;;;5038137;28;20115;-80
2022/09/13 09:32:46;;;;;;;2.65;1.30;;;;;;;;;;5036820;28;20029;-78
2022/09/13 09:35:23;;;;;;;4.47;1.40;;;;;;;;;;5054747;28;20075;-79
2022/09/13 09:38:06;;;;;;;3.38;1.42;;;;;;;;;;5054292;28;20024;-79
2022/09/13 09:40:33;;;;;;;3.97;1.55;;;;;;;;;;5054003;28;20111;-79
2022/09/13 09:42:59;;;;;;;2.92;1.08;;;;;;;;;;5069578;28;20040;-78
2022/09/13 09:45:30;;;;;;;4.43;1.30;;;;;;;;;;5069664;28;20032;-78
2022/09/13 09:48:00;;;;;;;2.05;1.38;;;;;;;;;;5072169;28;20021;-78
2022/09/13 09:50:33;;;;;;;1.70;1.20;;;;;;;;;;5056063;28;20400;-78
2022/09/13 09:53:15;;;;;;;2.72;1.10;;;;;;;;;;5070205;28;20021;-78
2022/09/13 09:55:47;;;;;;;1.75;1.30;;;;;;;;;;5052154;28;20136;-78
2022/09/13 09:58:15;;;;;;;2.03;1.30;;;;;;;;;;5069424;28;20017;-78
2022/09/13 10:00:57;;;;;;;2.85;1.23;;;;;;;;;;5036483;28;20029;-78
2022/09/13 10:03:31;;;;;;;4.50;1.13;;;;;;;;;;5069677;28;20388;-78
2022/09/13 10:06:12;;;;;;;3.88;1.30;;;;;;;;;;5053799;28;20037;-78
2022/09/13 10:08:40;;;;;;;1.92;1.20;;;;;;;;;;5052775;28;20111;-78
2022/09/13 10:11:06;;;;;;;4.20;1.40;;;;;;;;;;5052300;28;20021;-78
2022/09/13 10:13:32;;;;;;;1.48;1.05;;;;;;;;;;5069344;28;20068;-78
2022/09/13 10:15:59;;;;;;;1.23;0.98;;;;;;;;;;5052157;28;20040;-78
2022/09/13 10:18:34;;;;;;;1.58;1.10;;;;;;;;;;5053403;28;20424;-78
2022/09/13 10:21:02;;;;;;;1.23;0.90;;;;;;;;;;5035740;28;20103;-78
2022/09/13 10:23:28;;;;;;;1.98;1.20;;;;;;;;;;5053269;28;20033;-80
2022/09/13 10:26:05;;;;;;;2.08;1.10;;;;;;;;;;5069031;28;20057;-79
2022/09/13 10:28:34;;;;;;;1.27;1.00;;;;;;;;;;5068427;28;20032;-79
2022/09/13 10:31:08;;;;;;;1.90;1.00;;;;;;;;;;5069010;28;20104;-79
2022/09/13 10:33:36;;;;;;;2.15;0.95;;;;;;;;;;5068855;28;20083;-79
2022/09/13 10:36:13;;;;;;;1.67;1.00;;;;;;;;;;5053316;28;20119;-79
2022/09/13 10:38:40;;;;;;;5.75;1.00;;;;;;;;;;5069188;28;20501;-79
2022/09/13 10:41:18;;;;;;;3.25;1.20;;;;;;;;;;5052289;28;20060;-78
2022/09/13 10:43:44;;;;;;;1.08;0.93;;;;;;;;;;5068586;28;20025;-79
2022/09/13 10:46:13;;;;;;;1.50;1.00;;;;;;;;;;5035708;28;20373;-79
2022/09/13 10:48:54;;;;;;;2.47;1.02;;;;;;;;;;5035125;28;20396;-78
2022/09/13 10:51:26;;;;;;;2.17;1.00;;;;;;;;;;5034969;28;20032;-78
2022/09/13 10:54:23;;;;;;;2.50;0.95;;;;;;;;;;5034952;28;20365;-78
2022/09/13 10:56:50;;;;;;;2.22;1.00;;;;;;;;;;5013565;28;20061;-79
2022/09/13 10:59:20;;;;;;;1.13;0.82;;;;;;;;;;5035460;28;20028;-78
2022/09/13 11:02:09;;;;;;;1.73;1.02;;;;;;;;;;5035226;28;20389;-79
2022/09/13 11:05:12;;;;;;;4.82;1.00;;;;;;;;;;5034620;28;20025;-78
2022/09/13 11:07:56;;;;;;;2.17;1.00;;;;;;;;;;5053156;28;20025;-78
2022/09/13 11:10:39;;;;;;;2.58;1.00;;;;;;;;;;5053191;28;20036;-78
2022/09/13 11:13:26;;;;;;;2.95;0.80;;;;;;;;;;5054045;28;20353;-78
2022/09/13 11:16:17;;;;;;;1.95;1.00;;;;;;;;;;5054886;28;20048;-78
2022/09/13 11:18:50;;;;;;;1.70;1.00;;;;;;;;;;5054401;28;20055;-78
2022/09/13 11:21:27;;;;;;;1.75;0.98;;;;;;;;;;5053578;28;20028;-78
2022/09/13 11:24:11;;;;;;;1.55;0.90;;;;;;;;;;5067425;28;20075;-78
2022/09/13 11:26:51;;;;;;;1.52;0.95;;;;;;;;;;5052807;28;20021;-78
2022/09/13 11:29:52;;;;;;;2.95;1.00;;;;;;;;;;5017992;28;20393;-78
2022/09/13 11:32:37;;;;;;;2.60;0.93;;;;;;;;;;5044440;28;20099;-79
2022/09/13 11:35:27;;;;;;;4.45;1.13;;;;;;;;;;5039347;28;20021;-78
2022/09/13 11:38:05;;;;;;;2.15;1.10;;;;;;;;;;5053125;28;20033;-79
2022/09/13 11:40:48;;;;;;;1.92;0.98;;;;;;;;;;5037489;28;20110;-79
2022/09/13 11:43:26;;;;;;;4.70;1.25;;;;;;;;;;5057582;28;20031;-79
2022/09/13 11:45:57;;;;;;;0.85;0.85;;;;;;;;;;5054351;28;20473;-79
2022/09/13 11:48:40;;;;;;;3.28;1.20;;;;;;;;;;5036627;28;20047;-79
2022/09/13 11:51:15;;;;;;;2.55;0.77;;;;;;;;;;5054512;28;20457;-78
2022/09/13 11:53:55;;;;;;;1.38;1.10;;;;;;;;;;5039123;28;20024;-79
2022/09/13 11:56:22;;;;;;;5.22;1.10;;;;;;;;;;5060042;28;20053;-79
2022/09/13 11:58:59;;;;;;;3.55;1.00;;;;;;;;;;5065106;28;20554;-79
2022/09/13 12:01:28;;;;;;;1.50;0.80;;;;;;;;;;5026615;28;20350;-79
2022/09/13 12:04:04;;;;;;;2.00;1.00;;;;;;;;;;5072907;28;20465;-79
2022/09/13 12:06:33;;;;;;;3.92;1.00;;;;;;;;;;5057178;28;20029;-79
2022/09/13 12:09:06;;;;;;;1.33;0.85;;;;;;;;;;5044804;28;20017;-79
2022/09/13 12:11:53;;;;;;;2.85;1.00;;;;;;;;;;5080526;28;20488;-79
2022/09/13 12:14:22;;;;;;;2.08;0.80;;;;;;;;;;5025622;28;20036;-80
2022/09/13 12:16:55;;;;;;;2.10;0.88;;;;;;;;;;5041123;28;20025;-80
2022/09/13 12:19:48;;;;;;;1.30;0.80;;;;;;;;;;5060388;28;20111;-80
2022/09/13 12:22:14;;;;;;;4.75;0.90;;;;;;;;;;5045976;28;20048;-79
2022/09/13 12:24:45;;;;;;;3.47;0.82;;;;;;;;;;5064035;28;20048;-79
2022/09/13 12:27:32;;;;;;;0.80;0.65;;;;;;;;;;5064469;28;20033;-79
2022/09/13 12:30:08;;;;;;;0.70;0.70;;;;;;;;;;5046294;28;20035;-80
2022/09/13 12:32:37;;;;;;;2.83;0.88;;;;;;;;;;5062761;28;20060;-80
2022/09/13 12:35:07;;;;;;;0.82;0.70;;;;;;;;;;5055286;28;20398;-79
2022/09/13 12:37:41;;;;;;;1.55;1.00;;;;;;;;;;5070980;28;20025;-79
2022/09/13 12:40:11;;;;;;;2.20;1.10;;;;;;;;;;5056162;28;20027;-79
2022/09/13 12:42:46;;;;;;;1.42;0.80;;;;;;;;;;5056537;28;20071;-79
2022/09/13 12:45:15;;;;;;;0.82;0.68;;;;;;;;;;5037401;28;20029;-79
2022/09/13 12:47:43;;;;;;;3.10;1.15;;;;;;;;;;5055289;28;20032;-79
2022/09/13 12:50:22;;;;;;;2.60;1.00;;;;;;;;;;5055459;28;20063;-79
2022/09/13 12:52:57;;;;;;;2.70;0.93;;;;;;;;;;5055039;28;20060;-79
2022/09/13 12:55:41;;;;;;;1.52;0.98;;;;;;;;;;5056572;28;20036;-79
2022/09/13 12:58:40;;;;;;;1.58;0.80;;;;;;;;;;5062517;28;20048;-79
2022/09/13 13:01:06;;;;;;;2.15;0.98;;;;;;;;;;5037226;28;20024;-79
2022/09/13 13:03:34;;;;;;;1.50;0.77;;;;;;;;;;5057946;28;20028;-79
2022/09/13 13:06:23;;;;;;;0.98;0.73;;;;;;;;;;5038113;28;20041;-81
2022/09/13 13:08:57;;;;;;;1.45;0.63;;;;;;;;;;5071168;28;20375;-79
2022/09/13 13:11:27;;;;;;;1.58;0.73;;;;;;;;;;5037320;28;20078;-80
2022/09/13 13:13:56;;;;;;;0.75;0.70;;;;;;;;;;5040780;28;20461;-79
2022/09/13 13:16:26;;;;;;;1.30;1.00;;;;;;;;;;5054069;28;20025;-80
2022/09/13 13:18:54;;;;;;;4.00;0.60;;;;;;;;;;5070848;28;20077;-79
2022/09/13 13:21:35;;;;;;;1.90;0.88;;;;;;;;;;5052970;28;20025;-79
2022/09/13 13:24:16;;;;;;;0.93;0.77;;;;;;;;;;5055477;28;20021;-80
2022/09/13 13:26:41;;;;;;;2.25;0.93;;;;;;;;;;5072360;28;20052;-79
2022/09/13 13:29:24;;;;;;;1.50;0.70;;;;;;;;;;5064971;28;20029;-80
2022/09/13 13:31:56;;;;;;;2.40;0.60;;;;;;;;;;5058670;28;20029;-79
2022/09/13 13:34:36;;;;;;;2.05;0.80;;;;;;;;;;5057394;28;20021;-79
2022/09/13 13:37:25;;;;;;;0.73;0.70;;;;;;;;;;5038803;28;20017;-80
2022/09/13 13:40:24;;;;;;;2.05;0.70;;;;;;;;;;5023062;28;20128;-81
2022/09/13 13:42:50;;;;;;;1.95;0.90;;;;;;;;;;5072040;28;20067;-82
2022/09/13 13:45:19;;;;;;;3.13;1.00;;;;;;;;;;5043573;28;20025;-81
2022/09/13 13:48:04;;;;;;;12.90;1.42;;;;;;;;;;5047156;28;20476;-79
2022/09/13 13:50:30;;;;;;;4.90;1.10;;;;;;;;;;5037347;28;20044;-80
2022/09/13 13:53:04;;;;;;;6.65;1.88;;;;;;;;;;5039096;28;20477;-79
2022/09/13 13:55:46;;;;;;;7.28;1.80;;;;;;;;;;5040762;28;20040;-78
2022/09/13 13:58:29;;;;;;;13.90;1.70;;;;;;;;;;5038848;28;20068;-77
2022/09/13 14:00:58;;;;;;;6.07;1.80;;;;;;;;;;5071939;28;20021;-79
2022/09/13 14:03:45;;;;;;;4.32;1.50;;;;;;;;;;5056770;28;20029;-78
2022/09/13 14:06:19;;;;;;;6.10;1.95;;;;;;;;;;5072471;28;20381;-79
2022/09/13 14:08:54;;;;;;;3.28;1.48;;;;;;;;;;5038831;28;20021;-78
2022/09/13 14:11:34;;;;;;;7.13;1.80;;;;;;;;;;5057190;28;20044;-78
2022/09/13 14:14:04;;;;;;;6.47;1.48;;;;;;;;;;5054489;28;20115;-78
2022/09/13 14:17:01;;;;;;;5.38;1.52;;;;;;;;;;5022517;28;20052;-79
2022/09/13 14:19:28;;;;;;;5.03;1.45;;;;;;;;;;5071177;28;20016;-79
2022/09/13 14:22:13;;;;;;;6.63;1.50;;;;;;;;;;5038746;28;20029;-78
2022/09/13 14:24:42;;;;;;;3.90;1.17;;;;;;;;;;5055461;28;20057;-79
2022/09/13 14:27:18;;;;;;;5.43;1.70;;;;;;;;;;5038049;28;20025;-78
2022/09/13 14:29:45;;;;;;;4.45;1.48;;;;;;;;;;5039253;28;20111;-80
2022/09/13 14:32:15;;;;;;;4.40;1.50;;;;;;;;;;5022846;28;20029;-77
2022/09/13 14:34:57;;;;;;;5.38;1.30;;;;;;;;;;5039019;28;20084;-79
2022/09/13 14:37:28;;;;;;;5.40;1.33;;;;;;;;;;5037405;28;20020;-78
2022/09/13 14:39:56;;;;;;;1.40;1.00;;;;;;;;;;5055408;28;20195;-78
2022/09/13 14:42:21;;;;;;;3.08;1.10;;;;;;;;;;5053658;28;20021;-78
2022/09/13 14:44:47;;;;;;;3.03;1.23;;;;;;;;;;5069486;28;20120;-78
2022/09/13 14:47:18;;;;;;;4.07;1.25;;;;;;;;;;5051766;28;20497;-79
2022/09/13 14:49:58;;;;;;;3.55;1.20;;;;;;;;;;5053627;28;20070;-78
2022/09/13 14:52:31;;;;;;;3.47;1.30;;;;;;;;;;5055603;28;20024;-78
2022/09/13 14:55:02;;;;;;;8.23;1.13;;;;;;;;;;5022855;28;20393;-77
2022/09/13 14:57:38;;;;;;;10.05;1.10;;;;;;;;;;5037104;28;20041;-77
2022/09/13 15:00:09;;;;;;;2.70;1.00;;;;;;;;;;5071437;28;20032;-77
2022/09/13 15:02:37;;;;;;;8.10;1.10;;;;;;;;;;5071443;28;20552;-78
2022/09/13 15:05:07;;;;;;;3.97;0.85;;;;;;;;;;5070669;28;20028;-79
2022/09/13 15:07:37;;;;;;;3.83;0.90;;;;;;;;;;5036964;28;20025;-78
2022/09/13 15:10:20;;;;;;;1.48;0.95;;;;;;;;;;5069612;28;20020;-77